Time;durP1;ratioP1;P1;durP2;ratioP2;P2;SDS_P1;SDS_P2;PMS_P1;PMS_P2;Temp;Humidity;BMP_temperature;BMP_pressure;BME280_temperature;BME280_humidity;BME280_pressure;Samples;Min_cycle;Max_cycle;Signal;HPM_P1;HPM_P2
2022/09/10 00:00:18;;;;;;;0.20;0.20;;;;;;;16.92;67.49;100469.38;5193954;28;20028;-79
2022/09/10 00:02:48;;;;;;;0.20;0.20;;;;;;;16.98;66.71;100469.88;5208659;28;20508;-78
2022/09/10 00:05:20;;;;;;;0.20;0.20;;;;;;;16.95;67.65;100469.22;5208464;28;20394;-79
2022/09/10 00:07:50;;;;;;;0.22;0.22;;;;;;;16.81;68.42;100470.84;5212191;28;20119;-78
2022/09/10 00:10:21;;;;;;;0.22;0.22;;;;;;;16.85;68.52;100466.22;5207572;28;20128;-78
2022/09/10 00:12:52;;;;;;;0.50;0.50;;;;;;;16.90;67.89;100472.09;5224775;28;20527;-78
2022/09/10 00:15:23;;;;;;;0.40;0.40;;;;;;;17.01;67.65;100468.00;5243378;28;20404;-78
2022/09/10 00:17:53;;;;;;;0.20;0.20;;;;;;;16.98;67.18;100469.88;5204442;28;20049;-79
2022/09/10 00:20:26;;;;;;;0.40;0.40;;;;;;;16.86;67.89;100475.03;5204138;28;20101;-78
2022/09/10 00:22:57;;;;;;;0.30;0.30;;;;;;;16.86;67.94;100475.88;5211719;28;20040;-78
2022/09/10 00:25:31;;;;;;;0.20;0.20;;;;;;;16.84;68.53;100472.44;5193308;28;20520;-78
2022/09/10 00:28:01;;;;;;;0.60;0.60;;;;;;;16.97;67.34;100473.50;5213870;28;20047;-78
2022/09/10 00:30:32;;;;;;;0.20;0.20;;;;;;;16.91;68.31;100473.81;5186512;28;20738;-78
2022/09/10 00:33:02;;;;;;;0.20;0.20;;;;;;;16.90;68.18;100466.78;5211102;28;20063;-78
2022/09/10 00:35:34;;;;;;;0.20;0.20;;;;;;;16.74;69.74;100468.59;5213270;28;20024;-78
2022/09/10 00:38:10;;;;;;;0.20;0.20;;;;;;;16.84;68.24;100462.72;5225921;28;20048;-78
2022/09/10 00:40:40;;;;;;;0.20;0.20;;;;;;;17.02;67.67;100470.59;5195504;28;20560;-78
2022/09/10 00:43:19;;;;;;;0.20;0.20;;;;;;;17.01;67.63;100473.31;5219739;28;20040;-78
2022/09/10 00:45:52;;;;;;;0.20;0.20;;;;;;;16.98;68.08;100475.19;5211700;28;20381;-78
2022/09/10 00:48:30;;;;;;;0.20;0.20;;;;;;;16.98;68.13;100469.03;5218822;28;20048;-79
2022/09/10 00:51:13;;;;;;;0.20;0.20;;;;;;;16.86;69.49;100469.72;5215163;28;20066;-79
2022/09/10 00:53:44;;;;;;;1.95;1.02;;;;;;;16.89;68.39;100472.19;5225324;28;20040;-79
2022/09/10 00:56:15;;;;;;;0.20;0.20;;;;;;;16.91;68.91;100471.16;5207217;28;20125;-79
2022/09/10 00:58:47;;;;;;;0.30;0.30;;;;;;;16.96;67.85;100465.63;5227399;28;20044;-78
2022/09/10 01:01:18;;;;;;;0.25;0.25;;;;;;;17.07;68.36;100476.47;5193206;28;20584;-79
2022/09/10 01:03:49;;;;;;;0.20;0.20;;;;;;;16.99;68.33;100470.75;5214130;28;20063;-79
2022/09/10 01:06:20;;;;;;;0.20;0.20;;;;;;;17.02;68.25;100470.59;5200503;28;20044;-78
2022/09/10 01:08:51;;;;;;;0.32;0.32;;;;;;;17.05;67.66;100458.94;5228437;28;20198;-79
2022/09/10 01:11:56;;;;;;;0.28;0.28;;;;;;;16.98;67.70;100461.94;5197526;28;20029;-79
2022/09/10 01:14:52;;;;;;;0.20;0.20;;;;;;;17.11;68.23;100463.88;5216130;28;20036;-79
2022/09/10 01:17:27;;;;;;;0.30;0.30;;;;;;;16.89;69.55;100457.16;5211686;28;20545;-80
2022/09/10 01:20:20;;;;;;;0.20;0.20;;;;;;;16.90;69.02;100455.34;5212789;28;20115;-79
2022/09/10 01:23:16;;;;;;;0.28;0.28;;;;;;;16.99;68.03;100450.38;5206359;28;20104;-80
2022/09/10 01:26:08;;;;;;;0.20;0.20;;;;;;;17.09;68.07;100439.25;5236985;28;20036;-79
2022/09/10 01:29:08;;;;;;;0.28;0.28;;;;;;;17.04;68.16;100446.63;5208611;28;20064;-79
2022/09/10 01:31:55;;;;;;;0.70;0.70;;;;;;;16.99;69.35;100439.78;5242557;28;20043;-80
2022/09/10 01:34:44;;;;;;;0.20;0.20;;;;;;;17.05;67.96;100445.69;5211207;28;20564;-80
2022/09/10 01:37:22;;;;;;;0.20;0.20;;;;;;;16.88;70.09;100450.16;5214853;28;20032;-79
2022/09/10 01:39:55;;;;;;;0.20;0.20;;;;;;;17.02;68.87;100464.41;5193628;28;20040;-80
2022/09/10 01:42:29;;;;;;;0.20;0.20;;;;;;;16.95;68.74;100459.47;5211123;28;20048;-79
2022/09/10 01:45:00;;;;;;;0.20;0.20;;;;;;;17.00;69.10;100467.16;5205838;28;20051;-79
2022/09/10 01:47:33;;;;;;;0.20;0.20;;;;;;;16.98;69.11;100466.38;5187033;28;20033;-80
2022/09/10 01:50:06;;;;;;;0.20;0.20;;;;;;;17.06;68.05;100471.25;5207174;28;20039;-79
2022/09/10 01:52:44;;;;;;;0.22;0.22;;;;;;;16.98;68.57;100469.88;5211109;28;20036;-79
2022/09/10 01:55:36;;;;;;;0.20;0.20;;;;;;;17.05;69.12;100461.59;5209437;28;20529;-79
2022/09/10 01:58:20;;;;;;;0.60;0.60;;;;;;;17.03;68.34;100459.00;5220134;28;20146;-80
2022/09/10 02:01:02;;;;;;;0.20;0.20;;;;;;;17.07;68.12;100463.22;5252499;28;20656;-79
2022/09/10 02:03:35;;;;;;;0.20;0.20;;;;;;;16.86;70.53;100454.69;5227479;28;20086;-79
2022/09/10 02:06:13;;;;;;;0.20;0.20;;;;;;;16.99;69.17;100449.56;5206772;28;20119;-80
2022/09/10 02:08:48;;;;;;;0.25;0.25;;;;;;;17.01;68.75;100446.81;5223243;28;20048;-79
2022/09/10 02:11:18;;;;;;;0.20;0.20;;;;;;;17.02;69.75;100454.69;5219684;28;20036;-81
2022/09/10 02:13:49;;;;;;;4.07;1.70;;;;;;;17.09;68.53;100450.72;5212851;28;20040;-79
2022/09/10 02:16:36;;;;;;;0.47;0.47;;;;;;;16.96;69.47;100455.88;5225224;28;20062;-79
2022/09/10 02:19:10;;;;;;;0.20;0.20;;;;;;;16.92;69.30;100448.19;5232837;28;20048;-80
2022/09/10 02:21:40;;;;;;;0.60;0.52;;;;;;;16.80;70.99;100447.94;5193360;28;20042;-79
2022/09/10 02:24:12;;;;;;;0.45;0.45;;;;;;;16.97;69.32;100447.00;5195790;28;20123;-80
2022/09/10 02:26:43;;;;;;;0.30;0.30;;;;;;;16.91;70.50;100447.31;5245336;28;20440;-80
2022/09/10 02:29:18;;;;;;;1.05;1.02;;;;;;;16.76;71.48;100450.84;5202354;28;20044;-80
2022/09/10 02:31:51;;;;;;;0.20;0.20;;;;;;;16.71;71.38;100452.91;5267347;28;20020;-79
2022/09/10 02:34:23;;;;;;;0.50;0.50;;;;;;;16.84;70.77;100445.94;5209840;28;20040;-80
2022/09/10 02:36:56;;;;;;;0.22;0.22;;;;;;;16.75;71.28;100454.44;5214281;28;20059;-80
2022/09/10 02:39:27;;;;;;;0.52;0.52;;;;;;;16.75;70.52;100446.47;5197308;28;20127;-81
2022/09/10 02:41:58;;;;;;;0.30;0.30;;;;;;;16.81;70.94;100446.16;5222928;28;20048;-80
2022/09/10 02:44:29;;;;;;;0.38;0.38;;;;;;;16.83;70.73;100449.53;5218388;28;20037;-80
2022/09/10 02:47:00;;;;;;;0.20;0.20;;;;;;;16.77;70.24;100449.91;5223475;28;20052;-80
2022/09/10 02:49:33;;;;;;;0.20;0.20;;;;;;;16.82;70.11;100442.53;5216096;28;20090;-79
2022/09/10 02:52:04;;;;;;;0.52;0.52;;;;;;;16.84;70.71;100446.81;5207859;28;20029;-79
2022/09/10 02:54:35;;;;;;;0.30;0.30;;;;;;;16.72;70.92;100449.31;5238151;28;20023;-81
2022/09/10 02:57:06;;;;;;;0.22;0.22;;;;;;;16.71;71.04;100450.25;5217838;28;20035;-81
2022/09/10 02:59:37;;;;;;;0.30;0.30;;;;;;;16.64;72.00;100449.75;5236197;28;20013;-81
2022/09/10 03:02:10;;;;;;;0.32;0.32;;;;;;;16.66;71.20;100451.38;5249411;28;20072;-81
2022/09/10 03:04:42;;;;;;;0.28;0.28;;;;;;;16.75;70.57;100462.38;5245069;28;20050;-81
2022/09/10 03:07:19;;;;;;;0.40;0.40;;;;;;;16.76;71.57;100454.38;5225398;28;20059;-81
2022/09/10 03:09:49;;;;;;;0.20;0.20;;;;;;;16.79;70.62;100455.97;5174404;23;20042;-79
2022/09/10 03:12:20;;;;;;;0.20;0.20;;;;;;;16.72;71.31;100454.63;5176748;28;20523;-79
2022/09/10 03:14:52;;;;;;;0.93;0.85;;;;;;;16.73;70.26;100454.53;5177405;28;20480;-79
2022/09/10 03:17:22;;;;;;;0.20;0.20;;;;;;;16.81;70.46;100454.09;5172373;28;20058;-80
2022/09/10 03:19:53;;;;;;;5.15;2.30;;;;;;;16.77;70.94;100455.19;5159103;28;20462;-79
2022/09/10 03:22:23;;;;;;;0.28;0.28;;;;;;;16.90;69.56;100460.66;5160115;28;20041;-80
2022/09/10 03:24:54;;;;;;;0.20;0.20;;;;;;;16.82;69.56;100453.13;5158010;28;20485;-82
2022/09/10 03:27:25;;;;;;;1.27;0.65;;;;;;;16.86;69.97;100453.84;5157145;28;20042;-81
2022/09/10 03:29:55;;;;;;;0.20;0.20;;;;;;;16.86;69.33;100457.31;5159311;28;20030;-82
2022/09/10 03:32:25;;;;;;;0.35;0.28;;;;;;;16.78;70.79;100456.91;5145673;28;20045;-80
2022/09/10 03:34:56;;;;;;;0.20;0.20;;;;;;;16.82;70.72;100461.94;5163501;28;20026;-80
2022/09/10 03:37:27;;;;;;;0.40;0.40;;;;;;;16.79;70.53;100461.28;5160416;28;20244;-80
2022/09/10 03:39:57;;;;;;;0.20;0.20;;;;;;;16.83;70.04;100460.13;5174777;28;20065;-83
2022/09/10 03:42:28;;;;;;;0.85;0.85;;;;;;;16.82;70.24;100458.44;5153093;28;20259;-80
2022/09/10 03:44:58;;;;;;;0.68;0.68;;;;;;;16.80;70.90;100449.75;5160516;28;20038;-80
2022/09/10 03:47:30;;;;;;;0.30;0.30;;;;;;;16.71;71.81;100455.56;5163619;28;20043;-81
2022/09/10 03:50:01;;;;;;;0.25;0.25;;;;;;;16.78;71.06;100449.81;5164440;28;20038;-83
2022/09/10 03:52:31;;;;;;;2.30;0.77;;;;;;;16.70;72.50;100456.50;5145178;28;20042;-81
2022/09/10 03:55:01;;;;;;;0.30;0.30;;;;;;;16.67;72.38;100455.72;5172912;28;20038;-83
2022/09/10 03:57:32;;;;;;;1.08;0.73;;;;;;;16.62;73.02;100460.44;5172075;28;20045;-83
2022/09/10 04:00:03;;;;;;;0.20;0.20;;;;;;;16.74;71.34;100458.00;5173054;28;20065;-83
2022/09/10 04:02:33;;;;;;;1.48;1.05;;;;;;;16.75;70.75;100457.06;5171503;28;20038;-83
2022/09/10 04:05:05;;;;;;;1.95;0.77;;;;;;;16.74;71.47;100465.97;5169431;28;20065;-83
2022/09/10 04:07:36;;;;;;;0.90;0.88;;;;;;;16.70;72.47;100459.16;5159327;28;20168;-83
2022/09/10 04:10:07;;;;;;;0.20;0.20;;;;;;;16.79;70.62;100458.63;5175138;28;20038;-81
2022/09/10 04:12:38;;;;;;;0.40;0.40;;;;;;;16.67;73.12;100457.53;5155451;28;20389;-81
2022/09/10 04:15:08;;;;;;;2.20;1.08;;;;;;;16.64;72.84;100458.56;5161468;28;20388;-81
2022/09/10 04:17:39;;;;;;;1.25;1.20;;;;;;;16.66;71.95;100455.81;5141854;28;20034;-81
2022/09/10 04:20:10;;;;;;;0.20;0.20;;;;;;;16.73;71.79;100462.47;5160184;28;20041;-83
2022/09/10 04:22:41;;;;;;;0.22;0.22;;;;;;;16.74;70.94;100450.06;5156688;28;20113;-83
2022/09/10 04:25:12;;;;;;;2.55;0.90;;;;;;;16.73;71.54;100458.97;5161852;28;20114;-81
2022/09/10 04:27:43;;;;;;;0.22;0.22;;;;;;;16.81;71.26;100451.44;5144150;28;20303;-81
2022/09/10 04:30:14;;;;;;;0.60;0.60;;;;;;;16.70;72.22;100452.03;5176578;28;20113;-82
2022/09/10 04:32:45;;;;;;;0.30;0.30;;;;;;;16.81;70.85;100449.63;5173889;28;20073;-81
2022/09/10 04:35:17;;;;;;;0.47;0.47;;;;;;;16.69;71.55;100450.34;5158737;28;20077;-81
2022/09/10 04:37:48;;;;;;;0.28;0.28;;;;;;;16.69;72.36;100447.72;5143318;28;20042;-81
2022/09/10 04:40:18;;;;;;;0.40;0.40;;;;;;;16.65;73.33;100449.66;5142309;28;20073;-81
2022/09/10 04:42:49;;;;;;;0.43;0.43;;;;;;;16.77;70.93;100449.91;5159586;28;20422;-80
2022/09/10 04:45:19;;;;;;;0.73;0.40;;;;;;;16.74;72.25;100450.06;5176126;28;20050;-81
2022/09/10 04:47:51;;;;;;;1.08;0.80;;;;;;;16.58;73.34;100452.75;5176677;28;20046;-81
2022/09/10 04:50:22;;;;;;;0.53;0.40;;;;;;;16.63;72.22;100454.22;5173917;28;20045;-83
2022/09/10 04:52:52;;;;;;;0.30;0.30;;;;;;;16.58;73.07;100455.41;5157275;28;20034;-80
2022/09/10 04:55:24;;;;;;;0.20;0.20;;;;;;;16.65;72.38;100456.75;5176878;28;20053;-83
2022/09/10 04:57:54;;;;;;;1.30;0.77;;;;;;;16.49;73.98;100454.09;5160909;28;20050;-81
2022/09/10 05:00:25;;;;;;;1.10;0.70;;;;;;;16.47;73.75;100461.31;5143914;28;20506;-83
2022/09/10 05:02:56;;;;;;;1.25;0.85;;;;;;;16.51;73.14;100460.19;5159346;28;20050;-81
2022/09/10 05:05:27;;;;;;;14.15;0.63;;;;;;;16.62;71.79;100457.78;5162366;28;20026;-81
2022/09/10 05:07:59;;;;;;;0.30;0.30;;;;;;;16.54;73.07;100467.97;5161291;28;20069;-81
2022/09/10 05:10:29;;;;;;;0.20;0.20;;;;;;;16.52;73.65;100464.53;5176875;28;20042;-82
2022/09/10 05:13:00;;;;;;;0.80;0.73;;;;;;;16.70;71.53;100464.44;5167103;28;20039;-81
2022/09/10 05:15:30;;;;;;;0.52;0.52;;;;;;;16.65;71.37;100465.53;5162354;28;20038;-81
2022/09/10 05:18:01;;;;;;;0.22;0.22;;;;;;;16.47;73.58;100464.78;5146719;28;20104;-82
2022/09/10 05:20:31;;;;;;;0.20;0.20;;;;;;;16.52;72.90;100464.53;5179595;28;20026;-82
2022/09/10 05:23:02;;;;;;;0.40;0.40;;;;;;;16.50;73.92;100469.94;5149330;28;20050;-83
2022/09/10 05:25:33;;;;;;;0.40;0.40;;;;;;;16.54;73.58;100467.97;5146296;28;20035;-82
2022/09/10 05:28:04;;;;;;;1.88;0.93;;;;;;;16.66;71.92;100472.56;5160046;28;20124;-81
2022/09/10 05:30:35;;;;;;;0.47;0.47;;;;;;;16.62;71.73;100473.69;5143858;28;20053;-81
2022/09/10 05:33:06;;;;;;;0.47;0.47;;;;;;;16.58;72.71;100466.84;5161281;28;20343;-82
2022/09/10 05:35:36;;;;;;;0.40;0.40;;;;;;;16.55;72.93;100469.69;5161240;28;20030;-82
2022/09/10 05:38:10;;;;;;;0.20;0.20;;;;;;;16.50;74.22;100471.72;5157327;28;20037;-81
2022/09/10 05:40:41;;;;;;;0.35;0.35;;;;;;;16.60;72.81;100474.72;5175635;28;20034;-81
2022/09/10 05:43:12;;;;;;;0.30;0.30;;;;;;;16.61;72.89;100476.44;5161202;28;20062;-82
2022/09/10 05:45:42;;;;;;;0.20;0.20;;;;;;;16.63;72.58;100479.81;5160870;28;20037;-82
2022/09/10 05:48:13;;;;;;;3.42;1.15;;;;;;;16.59;72.70;100480.94;5160075;28;20390;-82
2022/09/10 05:50:46;;;;;;;1.80;0.55;;;;;;;16.46;73.87;100483.44;5158535;28;20037;-80
2022/09/10 05:53:17;;;;;;;4.72;1.73;;;;;;;16.47;74.24;100479.84;5126869;28;20105;-81
2022/09/10 05:55:48;;;;;;;1.20;1.10;;;;;;;16.55;73.37;100488.22;5172480;28;20054;-83
2022/09/10 05:58:18;;;;;;;0.68;0.68;;;;;;;16.48;74.90;100487.69;5158004;28;20701;-81
2022/09/10 06:00:50;;;;;;;0.30;0.30;;;;;;;16.53;74.35;100492.72;5165830;28;20042;-81
2022/09/10 06:03:20;;;;;;;1.00;0.65;;;;;;;16.65;72.43;100494.69;5142512;28;20046;-81
2022/09/10 06:05:51;;;;;;;1.55;1.45;;;;;;;16.65;71.89;100494.69;5160398;28;20057;-81
2022/09/10 06:08:22;;;;;;;0.20;0.20;;;;;;;16.68;72.21;100497.16;5157346;28;20393;-81
2022/09/10 06:11:13;;;;;;;0.98;0.40;;;;;;;16.71;73.19;100497.94;5169759;28;20030;-82
2022/09/10 06:13:43;;;;;;;0.73;0.73;;;;;;;16.80;71.99;100503.56;5158889;28;20050;-82
2022/09/10 06:16:15;;;;;;;0.35;0.35;;;;;;;16.79;71.90;100506.31;5179833;28;20516;-82
2022/09/10 06:18:45;;;;;;;0.45;0.45;;;;;;;16.76;71.87;100495.88;5144953;28;20252;-81
2022/09/10 06:21:18;;;;;;;0.40;0.40;;;;;;;16.75;72.02;100505.63;5161732;28;20108;-81
2022/09/10 06:23:51;;;;;;;5.88;0.85;;;;;;;16.81;71.71;100509.75;5143534;28;20046;-81
2022/09/10 06:26:22;;;;;;;1.17;0.98;;;;;;;16.89;72.74;100512.81;5162189;28;20062;-81
2022/09/10 06:28:54;;;;;;;2.88;0.55;;;;;;;16.82;72.68;100511.41;5158147;28;20535;-81
2022/09/10 06:31:26;;;;;;;0.20;0.20;;;;;;;16.80;73.62;100508.03;5158995;28;20080;-82
2022/09/10 06:33:57;;;;;;;0.63;0.63;;;;;;;16.87;72.33;100512.03;5176658;28;20038;-81
2022/09/10 06:39:45;;;;;;;0.17;0.17;;;;;;;16.97;71.79;100515.03;5149476;28;20034;-83
2022/09/10 06:42:16;;;;;;;0.20;0.20;;;;;;;16.98;72.60;100522.88;5145371;28;20037;-83
2022/09/10 06:44:46;;;;;;;0.52;0.52;;;;;;;16.87;73.50;100514.69;5145990;28;20098;-84
2022/09/10 06:47:17;;;;;;;1.05;0.98;;;;;;;16.88;74.24;100526.13;5158945;28;20153;-82
2022/09/10 06:49:48;;;;;;;1.65;1.08;;;;;;;16.96;73.43;100524.78;5143630;28;20037;-83
2022/09/10 06:52:18;;;;;;;1.67;1.58;;;;;;;16.92;72.88;100523.22;5139305;28;20135;-84
2022/09/10 06:54:50;;;;;;;1.55;1.40;;;;;;;17.00;72.16;100525.47;5160884;28;20066;-84
2022/09/10 06:57:26;;;;;;;0.35;0.35;;;;;;;17.02;72.23;100528.03;5146387;28;20378;-84
2022/09/10 06:59:57;;;;;;;0.43;0.43;;;;;;;16.85;76.15;100532.44;5173478;28;20120;-84
2022/09/10 07:02:29;;;;;;;0.28;0.28;;;;;;;16.89;74.98;100539.31;5141404;28;20031;-84
2022/09/10 07:05:00;;;;;;;0.40;0.40;;;;;;;16.94;74.05;100534.63;5161622;28;20128;-83
2022/09/10 07:07:30;;;;;;;0.55;0.45;;;;;;;16.94;74.63;100529.31;5162533;28;20129;-84
2022/09/10 07:10:01;;;;;;;0.40;0.40;;;;;;;16.96;75.11;100538.03;5164359;28;20096;-83
2022/09/10 07:12:31;;;;;;;0.50;0.40;;;;;;;16.89;75.21;100538.44;5164028;28;20042;-84
2022/09/10 07:15:02;;;;;;;0.40;0.40;;;;;;;16.91;74.47;100534.75;5167936;28;20026;-84
2022/09/10 07:17:35;;;;;;;0.52;0.52;;;;;;;16.89;75.76;100534.00;5150629;28;20095;-84
2022/09/10 07:20:07;;;;;;;0.30;0.30;;;;;;;16.85;75.73;100537.75;5155378;28;20038;-83
2022/09/10 07:22:38;;;;;;;1.58;1.48;;;;;;;16.99;73.48;100529.06;5163045;28;20050;-82
2022/09/10 07:25:08;;;;;;;0.45;0.45;;;;;;;17.02;73.53;100538.63;5177091;28;20034;-86
2022/09/10 07:27:39;;;;;;;0.35;0.35;;;;;;;17.04;74.09;100537.59;5154277;28;20548;-85
2022/09/10 07:30:10;;;;;;;0.88;0.68;;;;;;;16.97;74.45;100537.09;5175863;28;20045;-85
2022/09/10 07:32:42;;;;;;;0.45;0.40;;;;;;;17.05;74.42;100534.00;5158243;28;20504;-86
2022/09/10 07:35:12;;;;;;;0.50;0.50;;;;;;;17.07;73.65;100536.56;5178252;28;20320;-83
2022/09/10 07:37:44;;;;;;;0.43;0.43;;;;;;;16.98;74.32;100546.75;5144840;28;20745;-83
2022/09/10 07:40:15;;;;;;;0.30;0.30;;;;;;;17.04;74.84;100542.88;5140385;28;20058;-84
2022/09/10 07:42:45;;;;;;;0.38;0.38;;;;;;;17.08;73.54;100549.75;5152397;28;20042;-85
2022/09/10 07:45:16;;;;;;;4.78;2.17;;;;;;;17.17;73.31;100548.34;5154242;28;20031;-83
2022/09/10 07:47:48;;;;;;;1.17;1.13;;;;;;;17.14;73.71;100548.53;5155802;28;20126;-85
2022/09/10 07:50:19;;;;;;;0.30;0.30;;;;;;;17.10;76.44;100547.00;5169332;28;20098;-84
2022/09/10 07:52:49;;;;;;;0.30;0.30;;;;;;;17.09;75.29;100556.75;5141935;28;20094;-85
2022/09/10 07:55:22;;;;;;;0.57;0.50;;;;;;;17.11;74.50;100546.06;5169942;28;20089;-85
2022/09/10 07:57:54;;;;;;;0.30;0.30;;;;;;;17.11;76.01;100548.69;5139818;28;20057;-86
2022/09/10 08:00:25;;;;;;;;;;;;;;;17.18;73.82;100557.16;5155043;28;20041;-86
2022/09/10 08:02:56;;;;;;;1.10;0.40;;;;;;;16.99;76.89;100551.09;5154548;28;19968;-84
2022/09/10 08:05:27;;;;;;;11.30;1.85;;;;;;;17.08;75.92;100546.22;5157226;28;20041;-84
2022/09/10 08:07:58;;;;;;;0.47;0.47;;;;;;;17.14;74.47;100548.53;5152133;28;20057;-84
2022/09/10 08:10:28;;;;;;;0.40;0.40;;;;;;;17.19;76.08;100549.13;5139792;28;20034;-84
2022/09/10 08:13:02;;;;;;;0.30;0.30;;;;;;;17.21;75.85;100544.59;5125166;28;20129;-84
2022/09/10 08:15:43;;;;;;;0.47;0.47;;;;;;;17.08;77.00;100538.25;5153888;28;20038;-83
2022/09/10 08:18:13;;;;;;;0.55;0.55;;;;;;;17.13;76.86;100552.13;5135842;28;20035;-84
2022/09/10 08:20:44;;;;;;;1.15;1.13;;;;;;;17.31;75.09;100555.50;5137223;28;20037;-84
2022/09/10 08:23:14;;;;;;;0.30;0.30;;;;;;;17.26;76.16;100560.22;5168187;28;20599;-84
2022/09/10 08:25:50;;;;;;;0.40;0.40;;;;;;;17.26;76.40;100558.41;5136422;28;20041;-84
2022/09/10 08:28:23;;;;;;;1.33;0.60;;;;;;;17.34;76.31;100557.13;5138691;28;20042;-84
2022/09/10 08:31:03;;;;;;;0.70;0.70;;;;;;;17.32;77.48;100557.22;5169056;28;20457;-84
2022/09/10 08:33:35;;;;;;;1.80;1.70;;;;;;;17.35;76.54;100556.19;5138608;28;20030;-84
2022/09/10 08:36:09;;;;;;;0.57;0.57;;;;;;;17.38;76.62;100550.72;5122793;28;20038;-84
2022/09/10 08:38:40;;;;;;;0.20;0.20;;;;;;;17.43;76.62;100553.94;5155094;28;20619;-85
2022/09/10 08:41:25;;;;;;;2.95;0.65;;;;;;;17.19;77.43;100553.56;5152339;28;20034;-84
2022/09/10 08:44:04;;;;;;;0.85;0.75;;;;;;;17.24;76.88;100559.47;5156152;28;20047;-84
2022/09/10 08:46:47;;;;;;;0.30;0.30;;;;;;;17.26;76.33;100555.78;5122673;28;20400;-84
2022/09/10 08:49:32;;;;;;;0.47;0.47;;;;;;;17.26;77.49;100558.41;5155333;28;20057;-84
2022/09/10 08:52:09;;;;;;;2.33;0.93;;;;;;;17.15;77.79;100550.22;5135699;28;20061;-84
2022/09/10 08:54:51;;;;;;;0.43;0.43;;;;;;;17.15;78.11;100545.78;5156939;28;20373;-84
2022/09/10 08:57:29;;;;;;;0.50;0.50;;;;;;;17.34;76.04;100544.72;5142629;28;20034;-83
2022/09/10 09:00:01;;;;;;;0.70;0.70;;;;;;;17.08;78.60;100556.81;5157186;28;20034;-83
2022/09/10 09:02:55;;;;;;;0.40;0.40;;;;;;;17.12;78.54;100555.72;5134703;28;20497;-84
2022/09/10 09:05:27;;;;;;;;;;;;;;;17.12;78.61;100553.06;5152571;28;20617;-83
2022/09/10 09:07:58;;;;;;;0.68;0.68;;;;;;;17.19;78.56;100559.72;5167331;28;19922;-84
2022/09/10 09:10:40;;;;;;;1.27;1.20;;;;;;;17.13;78.50;100557.44;5151335;28;20096;-84
2022/09/10 09:13:30;;;;;;;0.40;0.40;;;;;;;17.11;78.62;100556.66;5138991;28;20039;-83
2022/09/10 09:16:27;;;;;;;0.40;0.40;;;;;;;17.11;78.60;100561.97;5168318;28;20038;-83
2022/09/10 09:19:13;;;;;;;0.45;0.45;;;;;;;17.07;79.11;100558.63;5122422;28;20496;-84
2022/09/10 09:21:50;;;;;;;1.02;1.02;;;;;;;16.98;79.67;100560.00;5156397;28;20049;-84
2022/09/10 09:24:54;;;;;;;0.47;0.47;;;;;;;17.07;79.26;100555.09;5218082;22;20040;-81
2022/09/10 09:27:35;;;;;;;1.60;1.50;;;;;;;17.05;79.60;100559.66;5180034;28;20529;-81
2022/09/10 09:30:17;;;;;;;0.30;0.30;;;;;;;17.04;79.25;100560.59;5189758;28;20048;-83
2022/09/10 09:33:09;;;;;;;0.55;0.55;;;;;;;16.87;80.24;100554.44;5190804;28;20040;-83
2022/09/10 09:35:54;;;;;;;3.65;1.08;;;;;;;16.98;79.90;100561.81;5190530;28;20340;-82
2022/09/10 09:38:31;;;;;;;0.77;0.77;;;;;;;17.02;79.10;100560.69;5222013;28;20049;-82
2022/09/10 09:41:07;;;;;;;0.68;0.68;;;;;;;17.02;79.31;100565.13;5218814;28;20048;-81
2022/09/10 09:43:41;;;;;;;0.47;0.47;;;;;;;16.95;79.21;100554.88;5221409;28;20153;-82
2022/09/10 09:46:15;;;;;;;0.93;0.85;;;;;;;16.99;79.68;100555.56;5192688;28;20032;-80
2022/09/10 09:48:47;;;;;;;0.47;0.47;;;;;;;16.88;80.02;100553.50;5208998;28;20035;-81
2022/09/10 09:51:19;;;;;;;1.10;1.02;;;;;;;16.83;80.12;100560.81;5214011;28;20113;-83
2022/09/10 09:53:55;;;;;;;0.73;0.73;;;;;;;17.02;78.67;100554.53;5187606;28;20038;-82
2022/09/10 09:56:42;;;;;;;0.40;0.40;;;;;;;16.83;79.64;100544.94;5186777;28;20487;-82
2022/09/10 09:59:26;;;;;;;1.40;1.30;;;;;;;16.83;80.07;100558.19;5183001;28;20041;-83
2022/09/10 10:02:04;;;;;;;0.77;0.57;;;;;;;16.87;80.27;100557.06;5187856;28;20040;-83
2022/09/10 10:04:35;;;;;;;0.57;0.57;;;;;;;16.83;80.67;100556.41;5182628;28;20043;-83
2022/09/10 10:07:06;;;;;;;1.38;0.73;;;;;;;16.97;79.23;100552.13;5198688;28;20116;-82
2022/09/10 10:09:47;;;;;;;0.50;0.50;;;;;;;16.90;79.71;100553.41;5184194;28;20391;-81
2022/09/10 10:12:20;;;;;;;0.55;0.55;;;;;;;16.85;80.30;100553.66;5216292;28;20048;-82
2022/09/10 10:14:50;;;;;;;0.43;0.43;;;;;;;16.87;80.72;100557.06;5183546;28;20037;-80
2022/09/10 10:17:25;;;;;;;2.55;1.15;;;;;;;16.88;80.69;100558.78;5214516;28;20089;-84
2022/09/10 10:20:03;;;;;;;0.40;0.40;;;;;;;16.92;80.23;100554.16;5215120;28;20043;-83
2022/09/10 10:22:36;;;;;;;1.25;0.90;;;;;;;16.93;80.08;100555.91;5195663;28;20051;-84
2022/09/10 10:25:48;;;;;;;0.73;0.73;;;;;;;16.99;79.26;100543.16;5202194;28;20033;-82
2022/09/10 10:28:26;;;;;;;1.77;1.33;;;;;;;16.83;79.99;100552.88;5164476;28;20447;-82
2022/09/10 10:30:59;;;;;;;1.52;1.42;;;;;;;17.06;79.01;100548.13;5132057;28;20046;-82
2022/09/10 10:33:32;;;;;;;0.95;0.95;;;;;;;16.95;79.88;100551.34;5177031;28;20036;-83
2022/09/10 10:36:19;;;;;;;0.40;0.40;;;;;;;16.89;80.08;100547.25;5182492;28;20383;-81
2022/09/10 10:39:07;;;;;;;0.40;0.40;;;;;;;16.79;81.28;100559.31;5204343;28;20064;-85
2022/09/10 10:41:48;;;;;;;0.88;0.88;;;;;;;16.71;81.91;100564.16;5198520;28;20056;-83
2022/09/10 10:44:42;;;;;;;0.65;0.65;;;;;;;16.78;81.60;100563.72;5195528;28;20046;-83
2022/09/10 10:47:32;;;;;;;1.17;1.08;;;;;;;16.79;81.07;100554.00;5212339;28;20071;-83
2022/09/10 10:50:24;;;;;;;0.57;0.57;;;;;;;16.62;81.76;100553.16;5189549;28;20049;-82
2022/09/10 10:53:10;;;;;;;1.45;1.33;;;;;;;16.68;81.50;100560.75;5200150;28;20120;-83
2022/09/10 10:55:51;;;;;;;2.28;0.80;;;;;;;16.60;82.41;100565.59;5235170;28;20036;-84
2022/09/10 10:58:40;;;;;;;0.38;0.30;;;;;;;16.68;82.54;100566.03;5187666;28;20057;-82
2022/09/10 11:01:16;;;;;;;0.82;0.82;;;;;;;16.63;82.96;100565.44;5193430;28;20234;-82
2022/09/10 11:04:21;;;;;;;0.40;0.40;;;;;;;16.77;82.44;100569.13;5203855;28;20263;-85
2022/09/10 11:07:04;;;;;;;0.80;0.80;;;;;;;16.85;81.58;100569.56;5198775;28;20032;-83
2022/09/10 11:10:02;;;;;;;0.82;0.52;;;;;;;16.75;83.02;100560.41;5184357;28;20079;-83
2022/09/10 11:12:42;;;;;;;0.75;0.75;;;;;;;16.68;82.86;100567.84;5201134;28;20064;-82
2022/09/10 11:15:43;;;;;;;0.43;0.43;;;;;;;16.76;81.94;100575.34;5197670;28;20398;-82
2022/09/10 11:18:13;;;;;;;1.13;1.08;;;;;;;16.79;81.96;100564.59;5205648;28;20398;-82
2022/09/10 11:21:23;;;;;;;0.98;0.80;;;;;;;16.88;81.75;100568.50;5203378;28;20040;-84
2022/09/10 11:24:17;;;;;;;1.30;1.20;;;;;;;16.90;81.47;100572.78;5186800;28;20045;-84
2022/09/10 11:27:13;;;;;;;0.52;0.52;;;;;;;16.96;80.69;100566.31;5202651;28;20021;-83
2022/09/10 11:30:02;;;;;;;0.50;0.50;;;;;;;16.94;80.88;100569.06;5201278;28;20045;-83
2022/09/10 11:32:49;;;;;;;0.57;0.57;;;;;;;16.91;81.28;100568.34;5186254;28;20033;-82
2022/09/10 11:35:58;;;;;;;1.55;1.40;;;;;;;16.97;80.39;100568.03;5222197;28;20098;-82
2022/09/10 11:38:48;;;;;;;0.50;0.50;;;;;;;16.97;80.76;100565.38;5172563;28;20113;-82
2022/09/10 11:41:26;;;;;;;0.55;0.55;;;;;;;16.97;81.05;100575.97;5213078;28;20033;-85
2022/09/10 11:44:27;;;;;;;0.57;0.57;;;;;;;16.99;81.46;100572.31;5223881;28;20041;-85
2022/09/10 11:47:28;;;;;;;0.57;0.47;;;;;;;17.04;81.19;100573.84;5203007;28;20040;-85
2022/09/10 11:50:15;;;;;;;0.22;0.22;;;;;;;17.13;81.29;100573.34;5205132;28;20056;-84
2022/09/10 11:52:46;;;;;;;0.60;0.60;;;;;;;17.08;81.51;100583.31;5208461;28;20629;-82
2022/09/10 11:55:16;;;;;;;0.68;0.68;;;;;;;17.09;81.91;100574.44;5205208;28;20033;-84
2022/09/10 11:58:14;;;;;;;0.63;0.63;;;;;;;17.12;81.99;100575.13;5205978;28;20028;-81
2022/09/10 12:01:20;;;;;;;0.65;0.65;;;;;;;17.25;81.86;100569.97;5225360;28;20029;-81
2022/09/10 12:04:11;;;;;;;1.13;1.02;;;;;;;17.26;81.71;100570.84;5172784;28;20045;-81
2022/09/10 12:06:45;;;;;;;1.35;1.25;;;;;;;17.30;81.01;100570.56;5227200;28;20522;-82
2022/09/10 12:09:27;;;;;;;1.17;1.10;;;;;;;17.22;81.07;100578.13;5177698;28;20048;-81